createdAt,value
2023-08-21T00:01:20.994Z,100659.44
2023-08-21T00:03:49.991Z,100654.25
2023-08-21T00:06:16.701Z,100654.28
2023-08-21T00:08:43.282Z,100655.13
2023-08-21T00:11:10.037Z,100651.59
2023-08-21T00:13:36.665Z,100658.72
2023-08-21T00:16:08.713Z,100665.81
2023-08-21T00:18:37.968Z,100672.16
2023-08-21T00:21:04.610Z,100663.41
2023-08-21T00:23:32.261Z,100669.66
2023-08-21T00:26:01.439Z,100661.75
2023-08-21T00:28:34.367Z,100661.69
2023-08-21T00:31:05.691Z,100658.09
2023-08-21T00:33:32.609Z,100661.66
2023-08-21T00:35:59.322Z,100670.63
2023-08-21T00:38:26.185Z,100674.19
2023-08-21T00:40:52.842Z,100676.00
2023-08-21T00:43:19.568Z,100684.00
2023-08-21T00:45:46.528Z,100677.91
2023-08-21T00:48:13.528Z,100679.63
2023-08-21T00:50:41.618Z,100682.28
2023-08-21T00:53:08.905Z,100684.91
2023-08-21T00:55:35.516Z,100687.53
2023-08-21T00:58:03.169Z,100689.38
2023-08-21T01:00:32.300Z,100682.38
2023-08-21T01:02:59.072Z,100681.59
2023-08-21T01:05:26.004Z,100687.00
2023-08-21T01:08:13.106Z,100683.66
2023-08-21T01:10:42.869Z,100686.38
2023-08-21T01:13:15.538Z,100687.31
2023-08-21T01:15:46.662Z,100692.56
2023-08-21T01:18:13.742Z,100694.34
2023-08-21T01:20:40.499Z,100691.63
2023-08-21T01:23:07.323Z,100688.94
2023-08-21T01:25:34.002Z,100693.28
2023-08-21T01:28:02.547Z,100697.63
2023-08-21T01:30:32.466Z,100694.00
2023-08-21T01:33:12.103Z,100694.84
2023-08-21T01:35:41.582Z,100691.28
2023-08-21T01:38:08.242Z,100691.31
2023-08-21T01:40:35.007Z,100690.44
2023-08-21T01:43:03.990Z,100691.34
2023-08-21T01:45:30.749Z,100704.66
2023-08-21T01:47:59.795Z,100697.59
2023-08-21T01:50:26.467Z,100701.97
2023-08-21T01:52:54.637Z,100702.84
2023-08-21T01:55:21.252Z,100706.38
2023-08-21T01:57:51.569Z,100701.06
2023-08-21T02:00:20.501Z,100706.41
2023-08-21T02:02:47.452Z,100706.41
2023-08-21T02:05:16.539Z,100702.91
2023-08-21T02:07:43.267Z,100706.41
2023-08-21T02:10:11.986Z,100702.84
2023-08-21T02:12:41.609Z,100707.19
2023-08-21T02:15:09.653Z,100700.22
2023-08-21T02:17:39.506Z,100701.13
2023-08-21T02:20:06.420Z,100709.09
2023-08-21T02:22:33.133Z,100699.47
2023-08-21T02:25:00.165Z,100697.69
2023-08-21T02:27:26.868Z,100703.00
2023-08-21T02:29:53.578Z,100705.69
2023-08-21T02:32:20.162Z,100703.91
2023-08-21T02:34:46.769Z,100703.06
2023-08-21T02:37:15.871Z,100705.69
2023-08-21T02:39:42.450Z,100704.81
2023-08-21T02:42:09.111Z,100704.88
2023-08-21T02:44:35.702Z,100708.53
2023-08-21T02:47:05.863Z,100708.56
2023-08-21T02:49:32.627Z,100705.00
2023-08-21T02:51:59.357Z,100707.66
2023-08-21T02:54:28.615Z,100702.41
2023-08-21T02:56:57.424Z,100706.06
2023-08-21T02:59:24.011Z,100708.81
2023-08-21T03:01:50.732Z,100706.16
2023-08-21T03:04:17.589Z,100697.28
2023-08-21T03:06:44.317Z,100701.59
2023-08-21T03:09:13.842Z,100696.28
2023-08-21T03:11:40.624Z,100687.41
2023-08-21T03:14:10.043Z,100698.03
2023-08-21T03:16:36.748Z,100695.41
2023-08-21T03:19:03.398Z,100697.19
2023-08-21T03:21:34.504Z,100699.00
2023-08-21T03:24:05.272Z,100702.56
2023-08-21T03:26:32.520Z,100705.22
2023-08-21T03:29:01.514Z,100699.16
2023-08-21T03:31:28.343Z,100716.97
2023-08-21T03:33:55.162Z,100717.06
2023-08-21T03:36:32.089Z,100709.19
2023-08-21T03:39:02.102Z,100715.34
2023-08-21T03:41:30.608Z,100710.91
2023-08-21T03:43:57.237Z,100717.94
2023-08-21T03:46:23.999Z,100730.34
2023-08-21T03:48:51.703Z,100725.09
2023-08-21T03:51:18.641Z,100722.38
2023-08-21T03:53:45.442Z,100720.56
2023-08-21T03:56:12.105Z,100717.00
2023-08-21T03:58:38.725Z,100710.75
2023-08-21T04:01:05.795Z,100708.09
2023-08-21T04:03:32.502Z,100710.69
2023-08-21T04:06:02.492Z,100702.78
2023-08-21T04:08:29.819Z,100704.44
2023-08-21T04:11:00.491Z,100699.16
2023-08-21T04:13:29.644Z,100700.03
2023-08-21T04:15:57.989Z,100707.09
2023-08-21T04:18:40.561Z,100705.41
2023-08-21T04:21:10.979Z,100718.66
2023-08-21T04:23:40.264Z,100712.56
2023-08-21T04:26:07.559Z,100715.22
2023-08-21T04:28:34.598Z,100719.53
2023-08-21T04:31:05.193Z,100716.00
2023-08-21T04:33:33.677Z,100715.09
2023-08-21T04:36:03.365Z,100719.47
2023-08-21T04:38:33.015Z,100723.03
2023-08-21T04:41:08.865Z,100719.47
2023-08-21T04:43:37.479Z,100728.28
2023-08-21T04:46:05.900Z,100721.19
2023-08-21T04:48:33.999Z,100718.47
2023-08-21T04:51:02.997Z,100722.03
2023-08-21T04:53:31.985Z,100720.31
2023-08-21T04:56:02.499Z,100721.16
2023-08-21T04:58:30.437Z,100731.75
2023-08-21T05:00:57.451Z,100732.69
2023-08-21T05:03:24.322Z,100736.22
2023-08-21T05:05:55.129Z,100739.69
2023-08-21T05:08:25.749Z,100738.69
2023-08-21T05:10:59.227Z,100740.34
2023-08-21T05:13:30.964Z,100742.13
2023-08-21T05:15:59.161Z,100750.09
2023-08-21T05:18:31.926Z,100746.56
2023-08-21T05:21:01.278Z,100743.91
2023-08-21T05:23:28.992Z,100748.28
2023-08-21T05:26:03.486Z,100756.28
2023-08-21T05:28:30.334Z,100754.41
2023-08-21T05:30:58.301Z,100760.50
2023-08-21T05:33:31.289Z,100756.06
2023-08-21T05:35:58.678Z,100756.91
2023-08-21T05:38:25.568Z,100751.50
2023-08-21T05:40:52.545Z,100750.47
2023-08-21T05:43:19.186Z,100754.06
2023-08-21T05:45:49.044Z,100759.25
2023-08-21T05:48:16.289Z,100768.88
2023-08-21T05:50:45.280Z,100767.88
2023-08-21T05:53:12.020Z,100768.72
2023-08-21T05:55:38.856Z,100767.75
2023-08-21T05:58:05.562Z,100764.09
2023-08-21T06:00:35.272Z,100755.97
2023-08-21T06:03:05.709Z,100764.72
2023-08-21T06:06:06.764Z,100761.06
2023-08-21T06:08:36.321Z,100759.16
2023-08-21T06:11:05.622Z,100760.84
2023-08-21T06:13:37.141Z,100762.44
2023-08-21T06:16:06.627Z,100763.13
2023-08-21T06:18:39.835Z,100764.75
2023-08-21T06:21:06.468Z,100767.25
2023-08-21T06:23:33.217Z,100762.75
2023-08-21T06:25:59.927Z,100763.50
2023-08-21T06:28:26.534Z,100765.97
2023-08-21T06:30:59.564Z,100769.31
2023-08-21T06:33:26.473Z,100762.97
2023-08-21T06:35:55.405Z,100768.09
2023-08-21T06:38:27.500Z,100759.09
2023-08-21T06:40:57.095Z,100764.31
2023-08-21T06:43:23.761Z,100760.59
2023-08-21T06:45:54.817Z,100759.59
2023-08-21T06:48:24.257Z,100754.03
2023-08-21T06:50:51.003Z,100757.44
2023-08-21T06:53:17.658Z,100764.28
2023-08-21T06:55:46.011Z,100756.06
2023-08-21T06:58:13.036Z,100757.66
2023-08-21T07:00:42.181Z,100758.31
2023-08-21T07:03:09.014Z,100750.09
2023-08-21T07:05:36.019Z,100759.53
2023-08-21T07:08:03.169Z,100758.44
2023-08-21T07:10:32.955Z,100749.22
2023-08-21T07:12:59.569Z,100745.47
2023-08-21T07:15:26.614Z,100747.84
2023-08-21T07:17:56.749Z,100758.09
2023-08-21T07:20:28.359Z,100751.63
2023-08-21T07:22:59.007Z,100743.47
2023-08-21T07:25:30.283Z,100746.66
2023-08-21T07:27:57.017Z,100744.66
2023-08-21T07:30:23.977Z,100743.47
2023-08-21T07:32:50.646Z,100747.63
2023-08-21T07:35:17.335Z,100740.44
2023-08-21T07:37:47.019Z,100749.97
2023-08-21T07:40:13.688Z,100745.19
2023-08-21T07:42:40.366Z,100750.13
2023-08-21T07:45:07.469Z,100747.44
2023-08-21T07:47:37.876Z,100742.88
2023-08-21T07:50:08.053Z,100746.31
2023-08-21T07:52:35.393Z,100748.94
2023-08-21T07:55:02.085Z,100747.91
2023-08-21T07:57:29.702Z,100747.72
2023-08-21T07:59:56.528Z,100753.72
2023-08-21T08:02:25.992Z,100753.38
2023-08-21T08:04:52.836Z,100759.31
2023-08-21T08:07:21.810Z,100758.25
2023-08-21T08:09:48.553Z,100754.41
2023-08-21T08:12:18.090Z,100757.63
2023-08-21T08:14:44.840Z,100762.75
2023-08-21T08:17:14.721Z,100750.97
2023-08-21T08:19:43.656Z,100755.19
2023-08-21T08:22:10.338Z,100758.50
2023-08-21T08:24:37.669Z,100747.59
2023-08-21T08:27:04.305Z,100748.25
2023-08-21T08:29:33.489Z,100747.00
2023-08-21T08:32:00.225Z,100739.50
2023-08-21T08:34:27.014Z,100738.31
2023-08-21T08:36:54.189Z,100745.06
2023-08-21T08:39:24.186Z,100744.97
2023-08-21T08:42:03.032Z,100749.22
2023-08-21T08:44:31.222Z,100742.75
2023-08-21T08:47:00.758Z,100744.66
2023-08-21T08:49:27.439Z,100743.63
2023-08-21T08:51:54.992Z,100748.69
2023-08-21T08:54:24.092Z,100751.13
2023-08-21T08:56:50.727Z,100753.69
2023-08-21T08:59:17.633Z,100753.03
2023-08-21T09:01:44.537Z,100752.41
2023-08-21T09:04:11.378Z,100759.88
2023-08-21T09:06:42.993Z,100753.28
2023-08-21T09:09:11.782Z,100752.72
2023-08-21T09:11:43.016Z,100746.16
2023-08-21T09:14:13.218Z,100750.09
2023-08-21T09:16:42.709Z,100746.50
2023-08-21T09:19:12.002Z,100741.56
2023-08-21T09:21:42.122Z,100747.44
2023-08-21T09:24:10.742Z,100739.34
2023-08-21T09:26:37.409Z,100739.25
2023-08-21T09:29:08.004Z,100744.31
2023-08-21T09:31:35.116Z,100737.88
2023-08-21T09:34:06.282Z,100737.47
2023-08-21T09:36:35.356Z,100719.63
2023-08-21T09:39:02.386Z,100721.31
2023-08-21T09:41:29.115Z,100721.75
2023-08-21T09:43:59.927Z,100724.66
2023-08-21T09:46:27.542Z,100718.50
2023-08-21T09:48:54.446Z,100721.25
2023-08-21T09:51:21.928Z,100721.97
2023-08-21T09:53:56.520Z,100714.34
2023-08-21T09:56:25.541Z,100715.53
2023-08-21T09:58:52.446Z,100711.81
2023-08-21T10:01:19.346Z,100706.13
2023-08-21T10:03:49.037Z,100704.66
2023-08-21T10:06:23.007Z,100710.03
2023-08-21T10:08:52.341Z,100703.38
2023-08-21T10:11:22.802Z,100698.13
2023-08-21T10:13:49.752Z,100701.28
2023-08-21T10:16:16.401Z,100694.09
2023-08-21T10:18:48.096Z,100695.19
2023-08-21T10:21:18.688Z,100698.28
2023-08-21T10:23:55.616Z,100689.13
2023-08-21T10:26:24.555Z,100688.25
2023-08-21T10:28:54.252Z,100692.25
2023-08-21T10:31:47.314Z,100689.03
2023-08-21T10:34:18.607Z,100683.03
2023-08-21T10:36:45.726Z,100682.56
2023-08-21T10:39:21.347Z,100686.97
2023-08-21T10:41:55.289Z,100686.91
2023-08-21T10:44:40.878Z,100685.59
2023-08-21T10:47:14.380Z,100685.16
2023-08-21T10:49:45.663Z,100687.69
2023-08-21T10:52:14.710Z,100680.22
2023-08-21T10:55:10.837Z,100684.41
2023-08-21T10:57:37.558Z,100680.00
2023-08-21T11:00:05.339Z,100679.22
2023-08-21T11:02:34.915Z,100685.41
2023-08-21T11:05:02.238Z,100684.09
2023-08-21T11:07:29.641Z,100679.19
2023-08-21T11:09:56.661Z,100677.72
2023-08-21T11:12:23.724Z,100676.44
2023-08-21T11:14:50.903Z,100671.41
2023-08-21T11:17:20.023Z,100676.94
2023-08-21T11:19:47.821Z,100663.03
2023-08-21T11:22:17.349Z,100667.69
2023-08-21T11:24:45.084Z,100664.94
2023-08-21T11:27:15.408Z,100664.06
2023-08-21T11:29:45.255Z,100662.41
2023-08-21T11:32:21.191Z,100660.44
2023-08-21T11:34:53.330Z,100659.88
2023-08-21T11:37:20.438Z,100663.69
2023-08-21T11:39:48.904Z,100657.13
2023-08-21T11:42:18.309Z,100667.19
2023-08-21T11:44:46.248Z,100661.28
2023-08-21T11:47:18.360Z,100662.38
2023-08-21T11:49:48.602Z,100660.03
2023-08-21T11:52:15.392Z,100656.91
2023-08-21T11:54:42.501Z,100650.25
2023-08-21T11:57:10.521Z,100652.47
2023-08-21T11:59:37.557Z,100653.06
2023-08-21T12:02:09.594Z,100642.50
2023-08-21T12:04:36.245Z,100649.00
2023-08-21T12:07:02.992Z,100644.88
2023-08-21T12:09:32.222Z,100646.75
2023-08-21T12:11:58.967Z,100635.34
2023-08-21T12:14:28.667Z,100639.69
2023-08-21T12:16:57.744Z,100634.53
2023-08-21T12:19:27.248Z,100633.66
2023-08-21T12:21:56.421Z,100636.50
2023-08-21T12:24:23.082Z,100635.16
2023-08-21T12:26:51.495Z,100642.81
2023-08-21T12:29:18.746Z,100627.09
2023-08-21T12:31:47.706Z,100635.53
2023-08-21T12:34:14.415Z,100632.59
2023-08-21T12:36:43.613Z,100627.72
2023-08-21T12:39:11.386Z,100633.75
2023-08-21T12:41:38.639Z,100628.84
2023-08-21T12:44:05.423Z,100626.00
2023-08-21T12:46:32.136Z,100620.16
2023-08-21T12:48:59.182Z,100626.47
2023-08-21T12:51:37.352Z,100628.09
2023-08-21T12:54:06.933Z,100621.69
2023-08-21T12:56:40.645Z,100625.38
2023-08-21T12:59:07.388Z,100619.38
2023-08-21T13:01:36.780Z,100610.91
2023-08-21T13:04:06.702Z,100610.84
2023-08-21T13:06:33.385Z,100613.78
2023-08-21T13:09:05.080Z,100605.00
2023-08-21T13:11:37.037Z,100609.47
2023-08-21T13:14:09.877Z,100606.50
2023-08-21T13:16:39.418Z,100593.16
2023-08-21T13:19:17.421Z,100607.47
2023-08-21T13:21:46.443Z,100597.53
2023-08-21T13:24:13.505Z,100596.81
2023-08-21T13:26:40.272Z,100590.00
2023-08-21T13:29:08.775Z,100596.69
2023-08-21T13:31:36.466Z,100586.88
2023-08-21T13:34:05.725Z,100585.16
2023-08-21T13:36:32.425Z,100589.13
2023-08-21T13:39:04.841Z,100588.72
2023-08-21T13:41:31.469Z,100590.84
2023-08-21T13:44:01.148Z,100587.00
2023-08-21T13:46:33.101Z,100589.78
2023-08-21T13:49:02.339Z,100591.59
2023-08-21T13:51:28.939Z,100592.47
2023-08-21T13:53:55.690Z,100587.22
2023-08-21T13:56:22.398Z,100589.84
2023-08-21T13:58:49.513Z,100581.84
2023-08-21T14:01:19.112Z,100583.22
2023-08-21T14:03:48.592Z,100574.53
2023-08-21T14:06:15.341Z,100575.94
2023-08-21T14:08:42.033Z,100575.34
2023-08-21T14:11:11.853Z,100567.63
2023-08-21T14:13:38.517Z,100565.94
2023-08-21T14:16:07.564Z,100566.78
2023-08-21T14:18:37.148Z,100565.13
2023-08-21T14:21:06.725Z,100561.97
2023-08-21T14:23:35.555Z,100561.72
2023-08-21T14:26:04.918Z,100561.41
2023-08-21T14:28:31.669Z,100559.59
2023-08-21T14:30:58.641Z,100551.34
2023-08-21T14:33:25.454Z,100560.19
2023-08-21T14:35:52.608Z,100545.59
2023-08-21T14:38:19.230Z,100540.44
2023-08-21T14:40:46.046Z,100543.94
2023-08-21T14:43:18.002Z,100540.75
2023-08-21T14:45:47.893Z,100540.25
2023-08-21T14:48:14.636Z,100538.19
2023-08-21T14:50:47.092Z,100540.75
2023-08-21T14:53:16.158Z,100549.53
2023-08-21T14:55:42.801Z,100548.53
2023-08-21T14:58:10.582Z,100539.22
2023-08-21T15:00:42.120Z,100540.94
2023-08-21T15:03:11.463Z,100546.06
2023-08-21T15:05:40.229Z,100540.28
2023-08-21T15:08:06.986Z,100538.75
2023-08-21T15:10:36.048Z,100535.19
2023-08-21T15:13:02.890Z,100533.13
2023-08-21T15:15:29.894Z,100531.38
2023-08-21T15:17:56.628Z,100535.72
2023-08-21T15:20:23.398Z,100531.25
2023-08-21T15:22:52.355Z,100533.78
2023-08-21T15:25:19.283Z,100518.63
2023-08-21T15:27:46.258Z,100523.94
2023-08-21T15:30:15.887Z,100524.78
2023-08-21T15:32:43.644Z,100516.13
2023-08-21T15:35:10.339Z,100528.78
2023-08-21T15:37:37.023Z,100517.81
2023-08-21T15:40:06.494Z,100519.84
2023-08-21T15:42:33.449Z,100519.16
2023-08-21T15:45:00.294Z,100503.75
2023-08-21T15:50:05.479Z,100501.28
2023-08-21T15:52:32.177Z,100505.09
2023-08-21T15:54:58.887Z,100505.66
2023-08-21T15:57:25.976Z,100501.34
2023-08-21T15:59:55.712Z,100500.09
2023-08-21T16:02:24.789Z,100494.91
2023-08-21T16:04:53.986Z,100500.81
2023-08-21T16:07:23.026Z,100505.66
2023-08-21T16:09:51.760Z,100501.34
2023-08-21T16:12:18.354Z,100489.63
2023-08-21T16:14:47.973Z,100351.66
2023-08-21T16:17:15.636Z,100490.69
2023-08-21T16:19:42.563Z,100490.78
2023-08-21T16:22:09.341Z,100498.53
2023-08-21T16:24:36.005Z,100493.94
2023-08-21T16:27:05.576Z,100495.44
2023-08-21T16:29:33.293Z,100494.59
2023-08-21T16:31:59.996Z,100496.16
2023-08-21T16:34:26.634Z,100496.00
2023-08-21T16:36:53.591Z,100493.94
2023-08-21T16:39:20.448Z,100494.06
2023-08-21T16:41:52.553Z,100492.13
2023-08-21T16:44:22.151Z,100495.69
2023-08-21T16:46:49.076Z,100502.00
2023-08-21T16:49:18.592Z,100501.75
2023-08-21T16:51:50.161Z,100498.16
2023-08-21T16:54:20.196Z,100497.06
2023-08-21T16:56:49.601Z,100498.50
2023-08-21T16:59:19.368Z,100495.91
2023-08-21T17:01:46.067Z,100492.44
2023-08-21T17:04:15.557Z,100499.00
2023-08-21T17:06:44.943Z,100497.31
2023-08-21T17:09:12.866Z,100500.00
2023-08-21T17:11:39.621Z,100502.06
2023-08-21T17:14:06.366Z,100497.69
2023-08-21T17:16:37.821Z,100502.91
2023-08-21T17:19:04.682Z,100501.97
2023-08-21T17:21:31.419Z,100497.19
2023-08-21T17:23:58.141Z,100506.94
2023-08-21T17:26:25.347Z,100502.16
2023-08-21T17:28:55.078Z,100499.66
2023-08-21T17:31:22.519Z,100503.34
2023-08-21T17:33:49.700Z,100513.25
2023-08-21T17:36:16.367Z,100505.28
2023-08-21T17:38:45.978Z,100504.59
2023-08-21T17:41:16.035Z,100510.94
2023-08-21T17:43:45.318Z,100510.94
2023-08-21T17:46:14.742Z,100510.47
2023-08-21T17:48:46.440Z,100509.16
2023-08-21T17:51:14.793Z,100513.63
2023-08-21T17:53:43.900Z,100518.25
2023-08-21T17:56:12.824Z,100511.41
2023-08-21T17:58:39.975Z,100515.44
2023-08-21T18:01:09.789Z,100514.09
2023-08-21T18:03:36.562Z,100511.97
2023-08-21T18:06:03.299Z,100515.13
2023-08-21T18:08:29.885Z,100525.25
2023-08-21T18:10:56.525Z,100518.50
2023-08-21T18:13:25.925Z,100520.19
2023-08-21T18:15:52.737Z,100532.00
2023-08-21T18:18:21.828Z,100533.66
2023-08-21T18:20:52.995Z,100530.81
2023-08-21T18:23:21.683Z,100534.59
2023-08-21T18:25:51.238Z,100543.63
2023-08-21T18:28:24.427Z,100544.00
2023-08-21T18:30:51.857Z,100547.91
2023-08-21T18:33:21.063Z,100550.19
2023-08-21T18:35:52.525Z,100557.91
2023-08-21T18:38:19.452Z,100552.97
2023-08-21T18:40:48.533Z,100550.56
2023-08-21T18:43:19.109Z,100559.94
2023-08-21T18:45:47.025Z,100565.81
2023-08-21T18:48:18.727Z,100569.81
2023-08-21T18:50:46.081Z,100573.53
2023-08-21T18:53:16.642Z,100563.22
2023-08-21T18:55:44.478Z,100567.03
2023-08-21T18:58:11.696Z,100567.94
2023-08-21T19:00:42.239Z,100561.69
2023-08-21T19:03:13.450Z,100565.22
2023-08-21T19:05:42.704Z,100560.88
2023-08-21T19:08:12.009Z,100562.00
2023-08-21T19:10:38.765Z,100563.31
2023-08-21T19:13:10.802Z,100558.50
2023-08-21T19:15:37.897Z,100571.84
2023-08-21T19:18:07.212Z,100574.44
2023-08-21T19:20:37.181Z,100567.09
2023-08-21T19:23:04.018Z,100571.09
2023-08-21T19:25:33.207Z,100569.56
2023-08-21T19:28:06.106Z,100576.81
2023-08-21T19:30:38.830Z,100573.44
2023-08-21T19:33:05.715Z,100577.28
2023-08-21T19:35:34.860Z,100575.53
2023-08-21T19:38:04.153Z,100586.25
2023-08-21T19:40:38.633Z,100578.31
2023-08-21T19:43:05.358Z,100592.66
2023-08-21T19:45:34.659Z,100585.88
2023-08-21T19:48:03.680Z,100596.03
2023-08-21T19:50:30.492Z,100592.69
2023-08-21T19:52:57.195Z,100591.03
2023-08-21T19:55:23.835Z,100592.38
2023-08-21T19:57:50.550Z,100587.06
2023-08-21T20:00:17.426Z,100583.81
2023-08-21T20:02:48.988Z,100588.78
2023-08-21T20:05:16.004Z,100594.59
2023-08-21T20:07:43.011Z,100593.91
2023-08-21T20:10:10.997Z,100597.56
2023-08-21T20:12:37.835Z,100601.88
2023-08-21T20:15:06.074Z,100594.59
2023-08-21T20:17:35.542Z,100592.84
2023-08-21T20:20:02.323Z,100599.88
2023-08-21T20:22:31.876Z,100598.09
2023-08-21T20:24:58.566Z,100607.91
2023-08-21T20:27:27.714Z,100603.50
2023-08-21T20:29:58.953Z,100605.56
2023-08-21T20:32:27.691Z,100604.69
2023-08-21T20:34:54.376Z,100598.78
2023-08-21T20:37:26.851Z,100603.41
2023-08-21T20:39:53.783Z,100599.13
2023-08-21T20:42:21.259Z,100600.09
2023-08-21T20:44:49.477Z,100592.28
2023-08-21T20:47:18.715Z,100601.13
2023-08-21T20:49:47.834Z,100600.28
2023-08-21T20:52:14.634Z,100600.38
2023-08-21T20:54:48.636Z,100596.06
2023-08-21T20:57:15.678Z,100598.78
2023-08-21T20:59:42.505Z,100606.00
2023-08-21T21:02:14.978Z,100607.81
2023-08-21T21:04:44.442Z,100607.50
2023-08-21T21:07:13.743Z,100612.94
2023-08-21T21:09:40.546Z,100615.59
2023-08-21T21:12:09.554Z,100613.94
2023-08-21T21:14:36.219Z,100613.88
2023-08-21T21:17:02.946Z,100607.81
2023-08-21T21:19:31.978Z,100606.19
2023-08-21T21:21:58.617Z,100605.34
2023-08-21T21:24:29.968Z,100609.91
2023-08-21T21:26:57.121Z,100602.91
2023-08-21T21:29:23.856Z,100625.28
2023-08-21T21:31:52.936Z,100615.66
2023-08-21T21:34:22.306Z,100616.69
2023-08-21T21:36:48.946Z,100612.31
2023-08-21T21:39:15.590Z,100613.41
2023-08-21T21:41:44.896Z,100612.56
2023-08-21T21:44:11.550Z,100616.22
2023-08-21T21:46:40.726Z,100617.22
2023-08-21T21:49:09.907Z,100615.44
2023-08-21T21:51:36.876Z,100610.22
2023-08-21T21:54:05.730Z,100616.53
2023-08-21T21:56:32.352Z,100618.34
2023-08-21T21:58:58.997Z,100617.63
2023-08-21T22:01:28.800Z,100618.66
2023-08-21T22:03:55.713Z,100621.34
2023-08-21T22:06:22.666Z,100612.75
2023-08-21T22:08:49.807Z,100624.38
2023-08-21T22:11:20.263Z,100630.81
2023-08-21T22:13:50.227Z,100626.78
2023-08-21T22:16:17.033Z,100629.47
2023-08-21T22:18:46.024Z,100630.31
2023-08-21T22:21:12.871Z,100628.50
2023-08-21T22:23:41.900Z,100624.94
2023-08-21T22:26:08.647Z,100625.78
2023-08-21T22:28:37.731Z,100627.56
2023-08-21T22:31:06.915Z,100620.59
2023-08-21T22:33:33.557Z,100619.97
2023-08-21T22:36:02.347Z,100616.47
2023-08-21T22:38:31.367Z,100611.34
2023-08-21T22:40:58.072Z,100618.56
2023-08-21T22:43:27.229Z,100618.50
2023-08-21T22:45:56.503Z,100618.56
2023-08-21T22:48:25.705Z,100610.63
2023-08-21T22:50:52.458Z,100614.22
2023-08-21T22:53:19.062Z,100625.69
2023-08-21T22:55:55.195Z,100618.63
2023-08-21T22:58:21.894Z,100625.59
2023-08-21T23:00:52.955Z,100623.03
2023-08-21T23:03:24.666Z,100630.28
2023-08-21T23:05:55.060Z,100635.78
2023-08-21T23:08:22.938Z,100620.91
2023-08-21T23:10:52.597Z,100615.84
2023-08-21T23:13:19.647Z,100620.22
2023-08-21T23:15:46.904Z,100620.19
2023-08-21T23:18:13.831Z,100618.38
2023-08-21T23:20:40.917Z,100608.63
2023-08-21T23:23:07.942Z,100613.06
2023-08-21T23:25:37.467Z,100613.13
2023-08-21T23:28:06.566Z,100615.84
2023-08-21T23:30:40.210Z,100610.59
2023-08-21T23:33:09.390Z,100616.78
2023-08-21T23:35:40.967Z,100606.09
2023-08-21T23:38:09.949Z,100602.53
2023-08-21T23:40:39.767Z,100594.56
2023-08-21T23:43:09.074Z,100596.28
2023-08-21T23:45:38.759Z,100594.56
2023-08-21T23:48:06.054Z,100597.34
2023-08-21T23:50:32.931Z,100588.75
2023-08-21T23:52:59.979Z,100586.97
2023-08-21T23:55:26.983Z,100588.75
2023-08-21T23:57:55.659Z,100582.53
